Latest Weather Observations for Laverton

IDW60801

Issued at 8:02 pm WST Saturday 28 February 2015 (issued every 30 minutes, with the page automatically refreshed every 10 minutes)

About weather observations | Map of weather stations | Latest weather observations for WA | Other Formats
Station Details ID: 012305 Name: LAVERTON AERO Lat: -28.61 Lon: 122.42 Height: 464.3 m
Data from the previous 72 hours. | See also: Recent months at Laverton
Date/Time
WST
Temp
°C
App
Temp
°C
Dew
Point
Rel
Hum
%
Delta-T
°C
Wind Press
QNH
hPa
Press
MSL
hPa
Rain
since 9 am
mm
Dir
 
Spd
km/h
Gust
km/h
Spd
kts
Gust
kts
28/08:00pm 24.8 21.8 16.8 61 5.0 ENE 28 37 15 20 1014.9 1011.8 0.0
28/07:30pm 25.0 22.8 17.0 61 5.0 E 24 33 13 18 1014.7 1011.6 0.0
28/07:00pm 25.5 22.7 17.2 60 5.3 E 28 37 15 20 1014.2 1011.0 0.0
28/06:30pm 26.0 23.1 17.1 58 5.6 E 28 35 15 19 1013.6 1010.5 0.0
28/06:00pm 26.2 23.1 17.6 59 5.5 E 30 37 16 20 1013.4 1010.3 0.0
28/05:30pm 26.5 24.2 17.6 58 5.7 E 26 33 14 18 1013.4 1010.3 0.0
28/05:00pm 26.8 24.2 17.8 57 5.8 ESE 28 35 15 19 1013.2 1010.1 0.0
28/04:30pm 27.2 24.6 17.9 56 6.0 ESE 28 33 15 18 1013.1 1010.0 0.0
28/04:00pm 27.6 25.7 17.7 54 6.4 ESE 24 32 13 17 1013.3 1010.2 0.0
28/03:30pm 28.6 26.4 17.8 52 7.0 ESE 26 33 14 18 1013.1 1010.0 0.0
28/03:00pm 27.9 25.8 17.1 51 6.9 ESE 24 35 13 19 1013.3 1010.2 0.0
28/02:30pm 28.4 26.5 17.6 52 7.0 E 24 32 13 17 1013.5 1010.4 0.0
28/02:00pm 28.2 26.3 17.7 53 6.8 ESE 24 35 13 19 1013.5 1010.4 0.0
28/01:30pm 28.3 27.1 17.5 52 6.9 ESE 20 32 11 17 1013.9 1010.8 0.0
28/01:00pm 28.3 28.2 18.7 56 6.3 E 17 24 9 13 1014.2 1011.0 0.0
28/12:30pm 27.0 26.3 18.3 59 5.6 ESE 19 26 10 14 1014.5 1011.3 0.0
28/12:00pm 26.4 25.8 18.8 63 4.9 ESE 20 26 11 14 1014.7 1011.6 0.0
28/11:30am 25.5 24.7 18.4 65 4.6 SE 20 28 11 15 1014.9 1011.8 0.0
28/11:00am 24.9 24.4 19.0 69 3.8 SE 20 28 11 15 1015.2 1012.1 0.0
28/10:30am 24.6 24.0 19.7 74 3.2 ESE 22 26 12 14 1015.3 1012.2 0.0
28/10:00am 24.0 23.3 19.5 76 2.9 ESE 22 30 12 16 1015.1 1012.0 0.0
28/09:30am 23.4 22.6 20.1 82 2.2 ESE 24 35 13 19 1015.1 1012.0 0.0
28/09:00am 22.7 21.3 19.7 83 2.0 ESE 26 33 14 18 1014.7 1011.6 9.8
28/08:30am 22.4 21.5 19.8 85 1.7 SE 24 33 13 18 1014.4 1011.2 9.8
28/08:00am 22.5 20.7 19.5 83 2.0 SE 28 35 15 19 1014.0 1010.9 9.8
28/07:30am 23.7 22.9 20.0 80 2.4 ESE 24 32 13 17 1013.6 1010.5 9.8
28/07:00am 23.7 23.1 19.8 79 2.6 ESE 22 32 12 17 1013.2 1010.1 9.8
28/06:30am 23.3 22.8 19.9 81 2.2 ESE 22 32 12 17 1012.7 1009.5 9.8
28/06:00am 23.0 22.8 19.8 82 2.1 ESE 20 30 11 16 1012.5 1009.3 9.8
28/05:30am 23.2 23.0 19.8 81 2.2 ESE 20 26 11 14 1012.0 1008.8 9.8
28/05:00am 23.3 23.1 19.7 80 2.4 ESE 20 30 11 16 1011.8 1008.7 9.8
28/04:30am 23.7 22.4 19.8 79 2.6 ESE 26 35 14 19 1011.6 1008.5 9.8
28/04:00am 24.4 23.5 19.9 76 3.0 ESE 24 30 13 16 1011.5 1008.4 9.8
28/03:30am 24.9 25.9 21.0 79 2.6 SE 17 22 9 12 1011.0 1007.9 9.8
28/03:00am 24.9 27.6 21.4 81 2.4 SE 9 13 5 7 1010.9 1007.8 9.8
28/02:30am 24.9 26.7 21.2 80 2.5 S 13 17 7 9 1010.8 1007.7 9.8
28/02:00am 24.8 25.8 21.1 80 2.5 SSE 17 22 9 12 1010.5 1007.3 9.8
28/01:30am 24.5 25.6 21.2 82 2.2 SSE 17 22 9 12 1010.6 1007.4 9.8
28/01:00am 24.1 25.9 21.8 87 1.6 WNW 15 19 8 10 1010.3 1007.1 9.8
28/12:30am 24.4 24.9 20.9 81 2.3 W 19 28 10 15 1010.4 1007.2 9.8
28/12:00am 24.5 24.9 21.0 81 2.3 W 20 28 11 15 1010.2 1007.0 9.8
 
Date/Time
WST
Temp
°C
App
Temp
°C
Dew
Point
Rel
Hum
%
Delta-T
°C
Wind Press
QNH
hPa
Press
MSL
hPa
Rain
since 9 am
mm
Dir
 
Spd
km/h
Gust
km/h
Spd
kts
Gust
kts
27/11:30pm 24.8 24.9 21.1 80 2.5 W 22 33 12 18 1010.0 1006.8 9.8
27/11:00pm 25.1 26.6 21.2 79 2.6 SSW 15 19 8 10 1010.2 1007.0 9.8
27/10:30pm 25.8 26.3 20.1 71 3.8 WSW 17 24 9 13 1009.5 1006.4 9.8
27/10:00pm 24.3 26.5 21.8 86 1.7 NW 13 20 7 11 1009.0 1005.9 9.8
27/09:30pm 24.0 26.1 21.7 87 1.6 NW 13 19 7 10 1009.2 1006.1 9.8
27/09:00pm 23.4 24.4 21.7 90 1.1 NNW 19 24 10 13 1009.4 1006.3 9.8
27/08:48pm 23.3 23.3 21.7 91 1.1 NW 24 33 13 18 1009.7 1006.5 9.8
27/08:35pm 23.3 20.7 20.6 85 1.8 W 35 46 19 25 1010.2 1007.0 9.2
27/08:30pm 23.8 21.7 20.5 82 2.2 W 32 46 17 25 1010.6 1007.4 6.8
27/08:15pm 25.9 23.2 20.5 72 3.6 WSW 35 54 19 29 1011.3 1008.2 5.8
27/08:06pm 26.1 24.0 20.9 73 3.5 WNW 33 54 18 29 1011.2 1008.1 5.8
27/08:00pm 26.6 25.2 20.4 69 4.1 NNW 28 39 15 21 1009.3 1006.2 5.8
27/07:30pm 26.6 26.6 21.6 74 3.4 NW 24 33 13 18 1009.0 1005.9 5.8
27/07:00pm 26.6 28.2 22.2 77 3.0 N 17 24 9 13 1007.2 1004.1 5.8
27/06:30pm 26.4 28.7 22.0 77 3.0 NNW 13 19 7 10 1006.5 1003.3 5.8
27/06:00pm 24.5 25.1 21.0 81 2.3 N 19 22 10 12 1006.7 1003.5 5.8
27/05:43pm 23.9 22.5 20.4 81 2.3 NW 28 46 15 25 1007.0 1003.9 5.2
27/05:35pm 23.3 17.3 19.5 79 2.5 WSW 50 82 27 44 1007.9 1004.7 3.0
27/05:33pm 24.8 17.5 19.2 71 3.7 WSW 56 82 30 44 1007.8 1004.6 2.4
27/05:30pm 26.9 18.7 18.5 60 5.5 WSW 59 82 32 44 1007.5 1004.3 1.6
27/05:20pm 24.6 17.2 17.3 64 4.6 WSW 52 83 28 45 1006.9 1003.8 0.2
27/05:18pm 26.3 20.5 17.4 58 5.7 WSW 44 78 24 42 1006.8 1003.6 0.2
27/05:17pm 27.6 22.4 17.5 54 6.5 WSW 41 74 22 40 1006.8 1003.6 0.2
27/05:00pm 30.2 28.9 19.9 54 6.9 W 26 52 14 28 1006.9 1003.8 0.0
27/04:59pm 30.3 29.0 19.9 53 7.0 W 26 52 14 28 1006.9 1003.8 0.0
27/04:30pm 33.6 34.0 20.7 46 8.8 NNW 19 26 10 14 1005.5 1002.3 0.0
27/04:00pm 35.5 36.7 19.8 39 10.7 WNW 13 15 7 8 1005.2 1002.0 0.0
27/03:30pm 35.0 36.0 19.4 40 10.5 WNW 13 32 7 17 1005.2 1002.0 0.0
27/03:00pm 35.7 36.4 19.6 39 10.9 WNW 15 28 8 15 1005.3 1002.1 0.0
27/02:30pm 36.3 36.6 19.7 37 11.2 WNW 17 26 9 14 1005.8 1002.6 0.0
27/02:00pm 35.6 36.2 20.3 40 10.4 W 17 24 9 13 1006.4 1003.2 0.0
27/01:30pm 34.7 35.1 19.9 42 10.0 WNW 17 26 9 14 1006.9 1003.8 0.0
27/01:00pm 34.2 34.8 21.3 47 8.9 WNW 20 30 11 16 1007.4 1004.2 0.0
27/12:30pm 33.9 34.3 21.7 49 8.4 NW 22 39 12 21 1007.7 1004.5 0.0
27/12:00pm 34.0 34.2 22.1 50 8.3 WNW 24 35 13 19 1008.0 1004.8 0.0
27/11:30am 32.9 32.6 21.1 50 8.1 WNW 24 33 13 18 1008.4 1005.2 0.0
27/11:00am 31.2 30.1 21.7 57 6.5 WNW 30 39 16 21 1008.8 1005.7 0.0
27/10:30am 30.3 29.3 21.9 60 5.8 WNW 30 37 16 20 1009.0 1005.9 0.0
27/10:00am 28.7 29.7 22.2 68 4.5 WNW 20 28 11 15 1009.3 1006.2 0.0
27/09:30am 28.2 29.0 22.4 71 4.0 NW 22 28 12 15 1009.7 1006.5 0.0
27/09:00am 27.4 27.6 22.1 73 3.6 WNW 24 32 13 17 1009.7 1006.5 3.4
27/08:30am 26.0 27.0 22.1 79 2.7 WNW 20 24 11 13 1009.5 1006.4 3.4
27/08:00am 25.3 27.4 22.4 84 2.0 NW 15 20 8 11 1009.1 1006.0 3.4
27/07:30am 24.9 27.9 22.6 87 1.6 NW 11 15 6 8 1008.8 1005.7 3.4
27/07:00am 24.2 27.5 23.2 94 0.7 NNW 11 13 6 7 1008.3 1005.1 3.4
27/06:30am 23.6 28.3 23.4 99 0.1 N 4 11 2 6 1008.2 1005.0 3.4
27/06:00am 23.2 28.5 23.0 99 0.1 CALM 0 0 0 0 1008.2 1005.0 3.4
27/05:30am 23.2 27.3 23.0 99 0.1 NNW 6 7 3 4 1008.0 1004.8 3.4
27/05:00am 23.2 26.8 23.0 99 0.1 N 9 11 5 6 1007.8 1004.6 3.4
27/04:30am 23.3 25.8 23.1 99 0.1 N 15 20 8 11 1007.8 1004.6 3.4
27/04:00am 23.4 25.5 23.1 98 0.2 N 17 20 9 11 1008.0 1004.8 3.4
27/03:30am 23.4 26.6 23.1 98 0.2 N 11 15 6 8 1008.0 1004.8 3.4
27/03:00am 23.4 27.0 23.1 98 0.2 N 9 13 5 7 1008.0 1004.8 3.4
27/02:30am 23.5 26.3 23.0 97 0.3 N 13 17 7 9 1008.0 1004.8 3.4
27/02:00am 23.5 25.7 23.2 98 0.2 N 17 22 9 12 1007.6 1004.4 3.4
27/01:30am 23.6 25.8 23.3 98 0.2 NNE 17 22 9 12 1008.0 1004.8 3.4
27/01:00am 23.7 26.0 23.4 98 0.2 NNE 17 20 9 11 1008.5 1005.3 3.4
27/12:30am 23.8 25.4 22.9 95 0.6 NNE 19 24 10 13 1009.0 1005.9 3.4
27/12:00am 24.0 26.0 23.0 94 0.7 N 17 22 9 12 1009.7 1006.5 3.4
 
Date/Time
WST
Temp
°C
App
Temp
°C
Dew
Point
Rel
Hum
%
Delta-T
°C
Wind Press
QNH
hPa
Press
MSL
hPa
Rain
since 9 am
mm
Dir
 
Spd
km/h
Gust
km/h
Spd
kts
Gust
kts
26/11:30pm 23.8 27.6 23.5 98 0.2 NNE 9 13 5 7 1009.7 1006.5 3.4
26/11:00pm 24.1 28.7 23.1 94 0.7 SSE 4 7 2 4 1009.5 1006.4 3.4
26/10:30pm 24.0 29.3 23.0 94 0.7 CALM 0 0 0 0 1008.9 1005.8 3.4
26/10:00pm 23.9 26.2 22.7 93 0.8 NNE 15 20 8 11 1008.2 1005.0 3.4
26/09:30pm 23.9 24.7 22.5 92 1.0 NE 22 28 12 15 1008.1 1004.9 3.4
26/09:00pm 23.8 26.6 23.6 99 0.1 ENE 15 17 8 9 1008.4 1005.2 3.4
26/08:30pm 23.7 26.0 23.5 99 0.1 NNW 17 24 9 13 1009.1 1006.0 3.2
26/08:00pm 23.9 26.0 23.7 99 0.1 ENE 19 24 10 13 1007.5 1004.3 2.6
26/07:30pm 24.5 26.2 22.4 88 1.4 WNW 17 28 9 15 1008.6 1005.4 1.6
26/07:00pm 24.9 25.4 22.0 84 2.0 WNW 22 33 12 18 1007.9 1004.7 0.8
26/06:30pm 27.2 27.3 20.3 66 4.6 W 20 33 11 18 1007.7 1004.5 0.4
26/06:00pm 26.5 26.7 20.6 70 4.0 W 20 30 11 16 1007.5 1004.3 0.4
26/05:30pm 27.8 27.2 21.3 67 4.4 WSW 26 39 14 21 1006.6 1003.4 0.4
26/05:17pm 28.7 27.3 21.2 64 5.1 WSW 30 54 16 29 1006.6 1003.4 0.4
26/05:14pm 29.6 29.8 21.3 61 5.6 SW 22 43 12 23 1006.6 1003.4 0.4
26/05:00pm 30.1 33.3 22.3 63 5.4 SE 9 13 5 7 1005.8 1002.6 0.4
26/04:30pm 29.4 32.4 22.6 67 4.7 ESE 11 15 6 8 1005.6 1002.4 0.4
26/04:00pm 28.3 31.8 22.1 69 4.3 SE 7 11 4 6 1006.4 1003.2 0.4
26/03:30pm 27.1 29.6 22.5 76 3.2 ESE 13 17 7 9 1006.3 1003.1 0.4
26/03:00pm 26.0 26.3 22.3 80 2.5 SE 24 30 13 16 1006.8 1003.6 0.2
26/02:30pm 28.5 27.4 20.2 60 5.5 SSW 26 32 14 17 1007.4 1004.2 0.0
26/02:11pm 27.6 24.6 20.7 66 4.6 SW 37 50 20 27 1008.1 1004.9 0.0
26/02:02pm 28.1 27.6 21.4 67 4.5 WNW 26 48 14 26 1008.1 1004.9 0.0
26/02:00pm 30.3 31.1 21.7 60 5.9 NW 20 44 11 24 1008.0 1004.8 0.0
26/01:30pm 33.9 31.8 20.6 45 9.1 N 32 52 17 28 1006.8 1003.6 0.0
26/01:28pm 34.3 33.0 20.6 44 9.3 N 28 52 15 28 1006.7 1003.5 0.0
26/01:00pm 35.7 35.2 20.0 39 10.7 N 22 33 12 18 1007.5 1004.3 0.0
26/12:30pm 36.4 36.6 20.6 39 10.8 NNW 20 33 11 18 1007.9 1004.7 0.0
26/12:00pm 34.0 33.2 20.0 43 9.5 N 24 35 13 19 1008.8 1005.7 0.0
26/11:30am 34.6 34.8 20.6 44 9.6 NNW 20 30 11 16 1009.5 1006.4 0.0
26/11:00am 33.3 33.0 21.1 48 8.4 N 24 33 13 18 1010.2 1007.0 0.0
26/10:30am 31.9 32.1 20.5 51 7.7 N 20 28 11 15 1010.7 1007.5 0.0
26/10:00am 32.2 31.8 20.1 48 8.2 N 22 32 12 17 1011.0 1007.9 0.0
26/09:30am 31.7 31.0 20.3 50 7.7 N 24 33 13 18 1011.1 1008.0 0.0
26/09:00am 30.3 30.5 20.5 55 6.6 N 20 28 11 15 1011.3 1008.2 14.6
26/08:30am 30.5 30.8 20.4 54 6.8 NNE 19 26 10 14 1011.1 1008.0 14.6
26/08:00am 28.7 29.2 21.2 64 5.1 NE 20 26 11 14 1011.2 1008.1 14.6
26/07:30am 26.8 27.7 20.9 70 4.0 NE 17 22 9 12 1011.2 1008.1 14.6
26/07:00am 26.4 28.2 21.2 73 3.5 ENE 13 15 7 8 1011.1 1008.0 14.6
26/06:30am 25.4 27.2 21.1 77 2.9 NE 13 19 7 10 1011.1 1008.0 14.6
26/06:00am 24.9 26.9 20.8 78 2.7 NE 11 15 6 8 1010.9 1007.8 14.6
26/05:30am 25.0 25.7 20.5 76 3.0 NE 17 24 9 13 1010.6 1007.4 14.6
26/05:00am 25.1 25.8 21.2 79 2.6 NE 19 28 10 15 1010.5 1007.3 14.6
26/04:30am 24.9 25.6 21.6 82 2.2 NE 20 28 11 15 1010.1 1006.9 14.6
26/04:00am 24.7 27.1 22.9 90 1.2 NE 15 20 8 11 1010.2 1007.0 14.6
26/03:30am 24.8 26.4 22.9 89 1.3 NE 19 24 10 13 1010.3 1007.1 14.6
26/03:00am 24.8 26.1 22.3 86 1.7 ENE 19 24 10 13 1010.1 1006.9 14.6
26/02:30am 24.6 25.9 22.7 89 1.3 ENE 20 26 11 14 1009.8 1006.6 14.6
26/02:00am 24.5 26.6 23.1 92 1.0 E 17 24 9 13 1009.9 1006.7 14.6
26/01:30am 24.5 25.8 22.6 89 1.3 E 20 28 11 15 1009.9 1006.7 14.6
26/01:00am 24.8 26.0 22.5 87 1.6 E 20 26 11 14 1010.2 1007.0 14.6
26/12:30am 24.8 26.1 22.7 88 1.4 E 20 26 11 14 1010.4 1007.2 14.6
26/12:00am 24.7 26.6 22.8 89 1.3 ENE 17 22 9 12 1010.8 1007.7 14.6
 
Date/Time
WST
Temp
°C
App
Temp
°C
Dew
Point
Rel
Hum
%
Delta-T
°C
Wind Press
QNH
hPa
Press
MSL
hPa
Rain
since 9 am
mm
Dir
 
Spd
km/h
Gust
km/h
Spd
kts
Gust
kts
25/11:30pm 24.9 26.5 22.8 88 1.4 ENE 19 22 10 12 1011.0 1007.9 14.6
25/11:00pm 24.9 26.6 23.0 89 1.3 ENE 19 26 10 14 1011.4 1008.3 14.6
25/10:30pm 25.1 26.7 23.2 89 1.3 NE 20 24 11 13 1012.2 1009.0 13.8
25/10:00pm 24.9 27.8 23.1 90 1.2 SE 13 19 7 10 1012.1 1008.9 13.6
25/09:30pm 25.7 26.8 22.4 82 2.3 E 20 24 11 13 1012.0 1008.8 13.4
25/09:00pm 25.3 28.1 23.7 91 1.1 ESE 15 20 8 11 1012.0 1008.8 13.4
25/08:30pm 24.9 28.1 24.4 97 0.4 E 15 19 8 10 1012.1 1008.9 13.2

Other Formats:

Comma delimited format used in spreadsheet applications
http://www.bom.gov.au/fwo/IDW60801/IDW60801.94449.axf

JavaScript Object Notation format (JSON) in row-major order
http://www.bom.gov.au/fwo/IDW60801/IDW60801.94449.json